createdAt,value
2018-10-05T00:01:51.154Z,86.10
2018-10-05T00:04:19.706Z,84.20
2018-10-05T00:06:48.276Z,84.50
2018-10-05T00:09:17.681Z,84.80
2018-10-05T00:11:46.225Z,84.30
2018-10-05T00:14:14.781Z,84.30
2018-10-05T00:16:43.324Z,83.20
2018-10-05T00:19:11.870Z,83.30
2018-10-05T00:21:40.432Z,84.20
2018-10-05T00:24:08.994Z,84.00
2018-10-05T00:26:37.605Z,83.80
2018-10-05T00:29:06.193Z,84.40
2018-10-05T00:31:34.773Z,83.60
2018-10-05T00:34:03.381Z,84.70
2018-10-05T00:36:31.919Z,85.70
2018-10-05T00:39:00.502Z,85.00
2018-10-05T00:41:29.087Z,84.30
2018-10-05T00:43:57.623Z,85.10
2018-10-05T00:46:26.183Z,85.50
2018-10-05T00:48:54.725Z,85.70
2018-10-05T00:51:23.282Z,85.60
2018-10-05T00:53:51.881Z,85.40
2018-10-05T00:56:20.454Z,85.70
2018-10-05T00:58:49.027Z,85.30
2018-10-05T01:01:17.680Z,84.70
2018-10-05T01:03:46.213Z,84.30
2018-10-05T01:06:14.772Z,84.00
2018-10-05T01:08:43.306Z,84.00
2018-10-05T01:11:11.851Z,84.40
2018-10-05T01:13:40.386Z,84.50
2018-10-05T01:16:08.946Z,84.40
2018-10-05T01:18:37.478Z,84.90
2018-10-05T01:21:06.128Z,84.90
2018-10-05T01:23:34.765Z,85.10
2018-10-05T01:26:03.329Z,85.40
2018-10-05T01:28:31.880Z,85.50
2018-10-05T01:31:00.482Z,86.00
2018-10-05T01:33:29.046Z,85.40
2018-10-05T01:35:57.607Z,85.80
2018-10-05T01:38:26.198Z,85.90
2018-10-05T01:40:54.746Z,86.10
2018-10-05T01:43:23.280Z,86.10
2018-10-05T01:45:51.842Z,86.20
2018-10-05T01:48:20.405Z,86.50
2018-10-05T01:50:49.008Z,86.30
2018-10-05T01:53:17.541Z,86.30
2018-10-05T01:55:46.065Z,86.60
2018-10-05T01:58:14.608Z,86.40
2018-10-05T02:00:43.221Z,86.50
2018-10-05T02:03:11.804Z,86.60
2018-10-05T02:05:40.382Z,86.60
2018-10-05T02:08:08.960Z,87.00
2018-10-05T02:10:37.520Z,87.30
2018-10-05T02:13:06.069Z,87.40
2018-10-05T02:15:34.630Z,87.20
2018-10-05T02:18:03.209Z,87.40
2018-10-05T02:20:31.747Z,87.50
2018-10-05T02:23:00.336Z,87.10
2018-10-05T02:25:28.897Z,87.50
2018-10-05T02:27:57.549Z,87.60
2018-10-05T02:30:26.079Z,87.40
2018-10-05T02:32:54.670Z,87.00
2018-10-05T02:35:23.204Z,87.20
2018-10-05T02:37:51.781Z,86.50
2018-10-05T02:40:20.322Z,87.00
2018-10-05T02:42:48.901Z,87.50
2018-10-05T02:45:17.506Z,87.50
2018-10-05T02:47:46.052Z,87.50
2018-10-05T02:50:14.609Z,87.90
2018-10-05T02:52:43.200Z,88.20
2018-10-05T02:55:11.762Z,88.30
2018-10-05T02:57:40.279Z,88.10
2018-10-05T03:00:18.842Z,88.50
2018-10-05T03:02:47.389Z,88.70
2018-10-05T03:05:15.957Z,89.10
2018-10-05T03:07:44.504Z,89.10
2018-10-05T03:10:13.051Z,89.70
2018-10-05T03:12:41.625Z,89.90
2018-10-05T03:15:10.182Z,90.20
2018-10-05T03:17:38.781Z,90.10
2018-10-05T03:20:07.408Z,90.30
2018-10-05T03:22:35.960Z,90.40
2018-10-05T03:25:04.562Z,90.50
2018-10-05T03:27:33.102Z,90.50
2018-10-05T03:30:01.645Z,90.60
2018-10-05T03:32:30.185Z,90.50
2018-10-05T03:34:58.727Z,90.60
2018-10-05T03:37:27.298Z,90.60
2018-10-05T03:39:55.854Z,90.90
2018-10-05T03:42:24.404Z,91.00
2018-10-05T03:44:52.940Z,91.20
2018-10-05T03:47:21.483Z,91.30
2018-10-05T03:49:50.041Z,91.50
2018-10-05T03:52:18.831Z,91.00
2018-10-05T03:54:47.390Z,91.50
2018-10-05T03:57:15.997Z,91.10
2018-10-05T03:59:44.557Z,91.30
2018-10-05T04:02:13.120Z,91.30
2018-10-05T04:04:41.640Z,92.00
2018-10-05T04:07:10.296Z,92.00
2018-10-05T04:09:38.845Z,92.30
2018-10-05T04:12:07.478Z,92.20
2018-10-05T04:14:36.161Z,92.30
2018-10-05T04:17:04.704Z,91.70
2018-10-05T04:19:33.262Z,92.30
2018-10-05T04:22:01.822Z,92.40
2018-10-05T04:24:30.420Z,92.60
2018-10-05T04:26:58.974Z,92.80
2018-10-05T04:29:27.500Z,93.00
2018-10-05T04:31:56.046Z,92.90
2018-10-05T04:34:24.606Z,92.80
2018-10-05T04:36:53.151Z,92.70
2018-10-05T04:39:21.727Z,93.10
2018-10-05T04:41:50.261Z,93.00
2018-10-05T04:44:18.836Z,93.20
2018-10-05T04:46:47.373Z,93.20
2018-10-05T04:49:15.923Z,93.20
2018-10-05T04:51:44.475Z,93.10
2018-10-05T04:54:13.004Z,93.30
2018-10-05T04:56:41.577Z,93.60
2018-10-05T04:59:10.129Z,94.00
2018-10-05T05:01:38.693Z,94.10
2018-10-05T05:04:07.297Z,94.30
2018-10-05T05:06:35.838Z,94.30
2018-10-05T05:09:05.425Z,94.20
2018-10-05T05:11:34.009Z,94.20
2018-10-05T05:14:02.561Z,94.30
2018-10-05T05:16:31.120Z,94.30
2018-10-05T05:18:59.710Z,94.20
2018-10-05T05:21:28.254Z,94.50
2018-10-05T05:23:57.297Z,94.50
2018-10-05T05:26:27.320Z,94.50
2018-10-05T05:28:56.199Z,94.50
2018-10-05T05:31:24.749Z,94.60
2018-10-05T05:33:53.338Z,94.60
2018-10-05T05:36:21.926Z,94.40
2018-10-05T05:38:50.498Z,94.30
2018-10-05T05:41:19.073Z,94.40
2018-10-05T05:43:47.664Z,94.50
2018-10-05T05:46:16.212Z,94.10
2018-10-05T05:48:45.364Z,93.90
2018-10-05T05:51:13.927Z,93.90
2018-10-05T05:53:42.542Z,93.60
2018-10-05T05:56:11.097Z,93.40
2018-10-05T05:58:39.680Z,93.20
2018-10-05T06:01:08.893Z,93.10
2018-10-05T06:03:38.576Z,93.00
2018-10-05T06:06:07.205Z,92.50
2018-10-05T06:08:35.768Z,92.00
2018-10-05T06:11:04.379Z,92.10
2018-10-05T06:13:32.993Z,91.20
2018-10-05T06:16:01.632Z,90.50
2018-10-05T06:18:30.295Z,90.30
2018-10-05T06:20:58.852Z,89.60
2018-10-05T06:23:27.451Z,89.10
2018-10-05T06:25:56.370Z,88.50
2018-10-05T06:28:25.132Z,87.70
2018-10-05T06:30:54.007Z,87.10
2018-10-05T06:33:22.849Z,86.80
2018-10-05T06:35:51.516Z,87.00
2018-10-05T06:38:20.321Z,87.50
2018-10-05T06:40:50.981Z,87.30
2018-10-05T06:43:19.869Z,86.60
2018-10-05T06:45:48.509Z,86.10
2018-10-05T06:48:17.051Z,86.50
2018-10-05T06:50:45.615Z,86.80
2018-10-05T06:53:14.188Z,86.60
2018-10-05T06:55:42.736Z,85.30
2018-10-05T06:58:11.300Z,85.10
2018-10-05T07:00:39.999Z,84.60
2018-10-05T07:03:08.757Z,84.30
2018-10-05T07:05:37.534Z,83.90
2018-10-05T07:08:06.152Z,83.60
2018-10-05T07:10:35.068Z,83.00
2018-10-05T07:13:03.851Z,82.50
2018-10-05T07:15:32.453Z,82.20
2018-10-05T07:18:01.190Z,81.90
2018-10-05T07:20:30.226Z,81.60
2018-10-05T07:22:58.808Z,81.00
2018-10-05T07:25:27.370Z,80.50
2018-10-05T07:27:55.974Z,80.40
2018-10-05T07:30:24.536Z,79.30
2018-10-05T07:32:54.021Z,79.00
2018-10-05T07:35:22.650Z,79.10
2018-10-05T07:37:51.292Z,78.40
2018-10-05T07:40:19.968Z,77.80
2018-10-05T07:42:48.551Z,76.30
2018-10-05T07:45:17.169Z,76.60
2018-10-05T07:47:45.767Z,76.00
2018-10-05T07:50:14.398Z,76.10
2018-10-05T07:52:42.986Z,75.40
2018-10-05T07:55:11.642Z,75.10
2018-10-05T07:57:40.290Z,75.00
2018-10-05T08:00:09.758Z,74.20
2018-10-05T08:02:38.360Z,73.90
2018-10-05T08:05:07.013Z,73.20
2018-10-05T08:07:35.633Z,73.20
2018-10-05T08:10:04.519Z,72.70
2018-10-05T08:12:33.127Z,72.80
2018-10-05T08:15:01.797Z,72.30
2018-10-05T08:17:30.453Z,72.30
2018-10-05T08:19:59.148Z,71.80
2018-10-05T08:22:27.762Z,71.70
2018-10-05T08:24:56.533Z,70.90
2018-10-05T08:27:25.218Z,70.20
2018-10-05T08:29:53.948Z,70.10
2018-10-05T08:32:22.542Z,70.60
2018-10-05T08:34:51.204Z,70.00
2018-10-05T08:37:19.846Z,69.90
2018-10-05T08:39:48.497Z,69.90
2018-10-05T08:42:17.105Z,68.80
2018-10-05T08:44:45.710Z,68.80
2018-10-05T08:47:14.344Z,69.20
2018-10-05T08:49:42.998Z,67.50
2018-10-05T08:52:12.042Z,66.60
2018-10-05T08:54:41.225Z,67.90
2018-10-05T08:57:09.827Z,67.10
2018-10-05T08:59:38.447Z,66.10
2018-10-05T09:02:07.043Z,65.70
2018-10-05T09:04:35.649Z,65.90
2018-10-05T09:07:04.274Z,65.00
2018-10-05T09:09:32.972Z,64.40
2018-10-05T09:12:01.701Z,64.60
2018-10-05T09:14:30.332Z,64.50
2018-10-05T09:16:58.940Z,64.90
2018-10-05T09:19:27.530Z,65.30
2018-10-05T09:21:56.209Z,65.30
2018-10-05T09:24:24.839Z,65.00
2018-10-05T09:26:53.485Z,64.20
2018-10-05T09:29:22.110Z,64.10
2018-10-05T09:31:50.720Z,62.90
2018-10-05T09:34:19.334Z,62.80
2018-10-05T09:36:47.936Z,62.70
2018-10-05T09:39:16.552Z,63.10
2018-10-05T09:41:45.144Z,63.30
2018-10-05T09:44:13.742Z,61.70
2018-10-05T09:46:42.374Z,62.30
2018-10-05T09:49:11.325Z,62.40
2018-10-05T09:51:39.995Z,61.10
2018-10-05T09:54:08.683Z,61.80
2018-10-05T09:56:37.328Z,60.80
2018-10-05T09:59:05.978Z,60.90
2018-10-05T10:01:39.761Z,60.60
2018-10-05T10:04:08.386Z,60.10
2018-10-05T10:06:37.006Z,59.70
2018-10-05T10:09:07.643Z,59.70
2018-10-05T10:11:36.318Z,59.10
2018-10-05T10:14:05.937Z,60.40
2018-10-05T10:16:35.701Z,58.80
2018-10-05T10:19:04.339Z,58.20
2018-10-05T10:21:32.978Z,57.10
2018-10-05T10:24:01.703Z,57.90
2018-10-05T10:26:30.321Z,58.20
2018-10-05T10:28:58.946Z,58.00
2018-10-05T10:31:27.525Z,57.90
2018-10-05T10:33:56.109Z,58.40
2018-10-05T10:36:24.678Z,56.20
2018-10-05T10:38:53.642Z,56.20
2018-10-05T10:41:22.232Z,56.80
2018-10-05T10:43:51.877Z,56.40
2018-10-05T10:46:20.572Z,57.00
2018-10-05T10:48:49.158Z,56.30
2018-10-05T10:51:18.120Z,56.50
2018-10-05T10:53:46.751Z,56.80
2018-10-05T10:56:15.378Z,56.70
2018-10-05T10:58:43.934Z,56.70
2018-10-05T11:01:12.506Z,56.50
2018-10-05T11:03:41.139Z,56.30
2018-10-05T11:06:09.777Z,56.00
2018-10-05T11:08:38.470Z,56.10
2018-10-05T11:11:07.168Z,55.50
2018-10-05T11:13:35.766Z,56.30
2018-10-05T11:16:04.342Z,55.50
2018-10-05T11:18:33.027Z,55.20
2018-10-05T11:21:02.313Z,54.80
2018-10-05T11:23:30.983Z,54.90
2018-10-05T11:26:00.566Z,55.80
2018-10-05T11:28:29.479Z,54.90
2018-10-05T11:30:58.119Z,54.50
2018-10-05T11:33:26.708Z,54.50
2018-10-05T11:35:55.284Z,54.80
2018-10-05T11:38:23.848Z,55.50
2018-10-05T11:40:52.550Z,54.20
2018-10-05T11:43:21.050Z,53.90
2018-10-05T11:45:49.696Z,53.30
2018-10-05T11:48:18.254Z,53.30
2018-10-05T11:50:47.615Z,52.40
2018-10-05T11:53:16.215Z,53.80
2018-10-05T11:55:44.803Z,52.60
2018-10-05T11:58:13.358Z,52.30
2018-10-05T12:00:41.905Z,52.10
2018-10-05T12:03:10.488Z,53.20
2018-10-05T12:05:39.068Z,52.90
2018-10-05T12:08:07.651Z,53.00
2018-10-05T12:10:36.205Z,52.40
2018-10-05T12:13:04.812Z,52.40
2018-10-05T12:15:33.365Z,52.10
2018-10-05T12:18:01.963Z,52.50
2018-10-05T12:20:30.508Z,52.10
2018-10-05T12:22:59.107Z,52.20
2018-10-05T12:25:27.634Z,53.00
2018-10-05T12:27:56.207Z,53.90
2018-10-05T12:30:24.770Z,52.00
2018-10-05T12:32:53.322Z,52.10
2018-10-05T12:35:21.915Z,52.30
2018-10-05T12:37:50.532Z,51.60
2018-10-05T12:40:19.139Z,52.00
2018-10-05T12:42:47.685Z,52.30
2018-10-05T12:45:16.263Z,51.20
2018-10-05T12:47:44.845Z,51.60
2018-10-05T12:50:13.403Z,51.70
2018-10-05T12:52:41.975Z,51.90
2018-10-05T12:55:10.533Z,52.40
2018-10-05T12:57:39.112Z,52.00
2018-10-05T13:00:07.793Z,51.80
2018-10-05T13:02:36.434Z,50.40
2018-10-05T13:05:05.396Z,51.00
2018-10-05T13:07:33.932Z,50.40
2018-10-05T13:10:02.474Z,50.70
2018-10-05T13:12:31.043Z,51.20
2018-10-05T13:14:59.620Z,52.00
2018-10-05T13:17:28.223Z,51.50
2018-10-05T13:19:56.785Z,51.40
2018-10-05T13:22:27.650Z,51.00
2018-10-05T13:24:57.764Z,51.70
2018-10-05T13:27:26.314Z,50.10
2018-10-05T13:29:54.899Z,50.80
2018-10-05T13:32:23.465Z,51.00
2018-10-05T13:34:52.023Z,51.00
2018-10-05T13:37:20.599Z,51.20
2018-10-05T13:39:49.129Z,51.50
2018-10-05T13:42:17.632Z,51.90
2018-10-05T13:44:46.156Z,52.80
2018-10-05T13:47:14.701Z,52.20
2018-10-05T13:49:43.254Z,52.20
2018-10-05T13:52:11.821Z,52.20
2018-10-05T13:54:40.378Z,52.80
2018-10-05T13:57:08.948Z,53.60
2018-10-05T13:59:37.487Z,52.80
2018-10-05T14:02:06.045Z,53.90
2018-10-05T14:04:34.613Z,52.90
2018-10-05T14:07:03.180Z,52.90
2018-10-05T14:09:31.785Z,53.60
2018-10-05T14:12:00.343Z,53.40
2018-10-05T14:14:28.944Z,53.80
2018-10-05T14:16:57.481Z,53.60
2018-10-05T14:19:26.055Z,54.00
2018-10-05T14:21:54.703Z,54.00
2018-10-05T14:24:23.225Z,54.10
2018-10-05T14:26:51.789Z,54.70
2018-10-05T14:29:20.356Z,54.00
2018-10-05T14:31:48.917Z,53.60
2018-10-05T14:34:17.475Z,54.00
2018-10-05T14:36:46.011Z,53.60
2018-10-05T14:39:14.566Z,54.30
2018-10-05T14:41:43.155Z,54.90
2018-10-05T14:44:11.705Z,54.00
2018-10-05T14:46:40.296Z,53.30
2018-10-05T14:49:09.105Z,53.80
2018-10-05T14:51:37.673Z,53.60
2018-10-05T14:54:06.256Z,53.90
2018-10-05T14:56:34.788Z,53.70
2018-10-05T14:59:03.380Z,53.60
2018-10-05T15:01:31.944Z,54.10
2018-10-05T15:04:00.473Z,54.10
2018-10-05T15:06:29.051Z,54.40
2018-10-05T15:08:57.692Z,54.50
2018-10-05T15:11:26.279Z,54.90
2018-10-05T15:13:54.889Z,55.00
2018-10-05T15:16:23.465Z,55.20
2018-10-05T15:18:52.041Z,55.60
2018-10-05T15:21:20.662Z,55.90
2018-10-05T15:23:49.263Z,56.40
2018-10-05T15:26:17.838Z,56.10
2018-10-05T15:28:46.404Z,56.00
2018-10-05T15:31:14.992Z,56.30
2018-10-05T15:33:43.545Z,56.20
2018-10-05T15:36:12.166Z,56.40
2018-10-05T15:38:40.756Z,57.00
2018-10-05T15:41:09.267Z,57.30
2018-10-05T15:43:37.853Z,57.90
2018-10-05T15:46:08.791Z,58.30
2018-10-05T15:48:37.685Z,58.60
2018-10-05T15:51:06.785Z,58.80
2018-10-05T15:53:35.370Z,59.20
2018-10-05T15:56:04.401Z,59.40
2018-10-05T15:58:32.965Z,59.70
2018-10-05T16:01:01.601Z,60.30
2018-10-05T16:03:30.168Z,60.60
2018-10-05T16:05:58.786Z,61.00
2018-10-05T16:08:27.302Z,61.30
2018-10-05T16:10:55.874Z,61.30
2018-10-05T16:13:24.430Z,61.70
2018-10-05T16:15:53.045Z,62.20
2018-10-05T16:18:21.718Z,62.60
2018-10-05T16:20:50.233Z,62.80
2018-10-05T16:23:18.793Z,63.40
2018-10-05T16:25:47.372Z,63.70
2018-10-05T16:28:15.947Z,64.10
2018-10-05T16:30:44.491Z,64.60
2018-10-05T16:33:13.081Z,65.20
2018-10-05T16:35:41.655Z,65.80
2018-10-05T16:38:10.194Z,65.90
2018-10-05T16:40:38.862Z,65.80
2018-10-05T16:43:07.477Z,66.60
2018-10-05T16:45:36.035Z,66.60
2018-10-05T16:48:04.609Z,66.80
2018-10-05T16:50:33.175Z,67.10
2018-10-05T16:53:02.797Z,67.70
2018-10-05T16:55:31.368Z,68.50
2018-10-05T16:57:59.945Z,68.80
2018-10-05T17:00:28.510Z,69.00
2018-10-05T17:02:57.292Z,69.80
2018-10-05T17:05:25.866Z,70.20
2018-10-05T17:07:54.735Z,70.90
2018-10-05T17:10:23.465Z,71.50
2018-10-05T17:12:52.060Z,71.70
2018-10-05T17:15:20.740Z,72.10
2018-10-05T17:17:49.311Z,72.50
2018-10-05T17:20:17.856Z,73.00
2018-10-05T17:22:46.503Z,73.30
2018-10-05T17:25:15.042Z,73.90
2018-10-05T17:27:43.625Z,74.00
2018-10-05T17:30:12.205Z,74.60
2018-10-05T17:32:40.879Z,75.10
2018-10-05T17:35:09.489Z,75.00
2018-10-05T17:37:38.117Z,75.00
2018-10-05T17:40:07.155Z,75.00
2018-10-05T17:42:35.711Z,75.10
2018-10-05T17:45:04.409Z,75.50
2018-10-05T17:47:33.051Z,75.70
2018-10-05T17:50:01.616Z,75.90
2018-10-05T17:52:30.222Z,75.80
2018-10-05T17:54:58.915Z,75.70
2018-10-05T17:57:27.688Z,75.20
2018-10-05T17:59:56.278Z,75.10
2018-10-05T18:02:24.850Z,74.40
2018-10-05T18:04:54.263Z,73.80
2018-10-05T18:07:22.837Z,73.10
2018-10-05T18:09:51.449Z,72.50
2018-10-05T18:12:20.083Z,72.40
2018-10-05T18:14:48.772Z,72.20
2018-10-05T18:17:18.382Z,71.80
2018-10-05T18:19:46.937Z,71.40
2018-10-05T18:22:15.485Z,71.40
2018-10-05T18:24:44.228Z,71.30
2018-10-05T18:27:12.789Z,71.10
2018-10-05T18:29:41.485Z,70.80
2018-10-05T18:32:10.123Z,70.80
2018-10-05T18:34:38.718Z,70.80
2018-10-05T18:37:07.307Z,70.70
2018-10-05T18:39:35.897Z,70.50
2018-10-05T18:42:04.557Z,70.60
2018-10-05T18:44:33.136Z,70.80
2018-10-05T18:47:01.691Z,70.80
2018-10-05T18:49:30.351Z,70.60
2018-10-05T18:51:59.024Z,70.60
2018-10-05T18:54:27.615Z,70.20
2018-10-05T18:57:07.577Z,70.10
2018-10-05T18:59:36.294Z,70.00
2018-10-05T19:02:04.955Z,70.00
2018-10-05T19:04:33.558Z,70.00
2018-10-05T19:07:02.290Z,69.80
2018-10-05T19:09:30.745Z,69.90
2018-10-05T19:11:59.457Z,70.00
2018-10-05T19:14:28.036Z,70.20
2018-10-05T19:16:57.043Z,70.30
2018-10-05T19:19:25.656Z,70.40
2018-10-05T19:21:54.239Z,70.60
2018-10-05T19:24:22.832Z,70.70
2018-10-05T19:26:52.486Z,70.20
2018-10-05T19:29:21.169Z,70.40
2018-10-05T19:31:49.792Z,70.20
2018-10-05T19:34:18.368Z,70.20
2018-10-05T19:36:46.941Z,70.10
2018-10-05T19:39:15.529Z,69.90
2018-10-05T19:41:44.138Z,70.30
2018-10-05T19:44:12.724Z,70.00
2018-10-05T19:46:41.518Z,70.20
2018-10-05T19:49:12.130Z,69.80
2018-10-05T19:51:40.723Z,69.90
2018-10-05T19:54:09.363Z,69.40
2018-10-05T19:56:37.979Z,69.40
2018-10-05T19:59:06.600Z,69.40
2018-10-05T20:01:35.167Z,69.50
2018-10-05T20:04:03.815Z,69.40
2018-10-05T20:06:32.382Z,69.60
2018-10-05T20:09:00.980Z,69.70
2018-10-05T20:11:29.532Z,69.40
2018-10-05T20:13:58.171Z,69.40
2018-10-05T20:16:26.740Z,69.10
2018-10-05T20:18:55.376Z,68.90
2018-10-05T20:21:23.977Z,68.80
2018-10-05T20:23:52.611Z,68.80
2018-10-05T20:26:21.222Z,68.80
2018-10-05T20:28:49.748Z,68.70
2018-10-05T20:31:18.314Z,68.30
2018-10-05T20:33:46.868Z,68.30
2018-10-05T20:36:15.541Z,68.00
2018-10-05T20:38:44.089Z,68.30
2018-10-05T20:41:12.648Z,68.30
2018-10-05T20:43:41.224Z,68.50
2018-10-05T20:46:09.771Z,68.30
2018-10-05T20:48:38.426Z,68.30
2018-10-05T20:51:07.124Z,68.50
2018-10-05T20:53:35.757Z,68.10
2018-10-05T20:56:04.307Z,68.10
2018-10-05T20:58:32.882Z,67.90
2018-10-05T21:01:01.533Z,67.80
2018-10-05T21:03:30.110Z,67.70
2018-10-05T21:05:58.875Z,68.00
2018-10-05T21:08:27.509Z,68.30
2018-10-05T21:10:56.111Z,68.40
2018-10-05T21:13:24.746Z,68.30
2018-10-05T21:15:53.324Z,68.10
2018-10-05T21:18:21.898Z,68.20
2018-10-05T21:20:50.474Z,68.10
2018-10-05T21:23:19.034Z,67.90
2018-10-05T21:25:47.595Z,68.00
2018-10-05T21:28:16.166Z,68.00
2018-10-05T21:30:44.743Z,68.20
2018-10-05T21:33:13.344Z,68.10
2018-10-05T21:35:41.887Z,68.20
2018-10-05T21:38:10.446Z,68.10
2018-10-05T21:40:39.012Z,68.30
2018-10-05T21:43:07.616Z,68.60
2018-10-05T21:45:36.155Z,68.80
2018-10-05T21:48:04.697Z,68.90
2018-10-05T21:50:33.264Z,69.00
2018-10-05T21:53:01.826Z,68.50
2018-10-05T21:55:30.630Z,68.50
2018-10-05T21:57:59.258Z,68.50
2018-10-05T22:00:32.163Z,68.40
2018-10-05T22:03:00.747Z,68.10
2018-10-05T22:05:29.298Z,68.60
2018-10-05T22:07:57.842Z,68.50
2018-10-05T22:10:26.370Z,68.30
2018-10-05T22:12:54.945Z,68.40
2018-10-05T22:15:23.533Z,68.00
2018-10-05T22:17:52.090Z,68.20
2018-10-05T22:20:20.669Z,68.10
2018-10-05T22:22:49.267Z,68.40
2018-10-05T22:25:17.910Z,68.50
2018-10-05T22:27:46.499Z,68.40
2018-10-05T22:30:15.106Z,68.40
2018-10-05T22:32:43.694Z,68.50
2018-10-05T22:35:12.278Z,68.60
2018-10-05T22:37:40.841Z,68.50
2018-10-05T22:40:09.422Z,68.50
2018-10-05T22:42:38.008Z,68.60
2018-10-05T22:45:06.586Z,68.50
2018-10-05T22:47:35.227Z,68.40
2018-10-05T22:50:03.885Z,68.50
2018-10-05T22:52:32.454Z,68.70
2018-10-05T22:55:01.040Z,68.70
2018-10-05T22:57:29.581Z,69.10
2018-10-05T22:59:58.139Z,69.30
2018-10-05T23:02:26.765Z,69.30
2018-10-05T23:04:55.322Z,69.20
2018-10-05T23:07:24.032Z,69.40
2018-10-05T23:09:52.592Z,69.50
2018-10-05T23:12:21.178Z,69.60
2018-10-05T23:14:49.788Z,69.60
2018-10-05T23:17:18.356Z,69.80
2018-10-05T23:19:46.927Z,70.10
2018-10-05T23:22:15.498Z,70.10
2018-10-05T23:24:44.073Z,69.90
2018-10-05T23:27:12.604Z,70.00
2018-10-05T23:29:41.193Z,69.60
2018-10-05T23:32:09.781Z,69.50
2018-10-05T23:34:38.342Z,69.60
2018-10-05T23:37:06.947Z,69.70
2018-10-05T23:39:35.543Z,69.80
2018-10-05T23:42:04.103Z,69.90
2018-10-05T23:44:32.699Z,70.30
2018-10-05T23:47:01.311Z,70.30
2018-10-05T23:49:29.879Z,70.30
2018-10-05T23:52:09.636Z,70.50
2018-10-05T23:54:38.193Z,70.70
2018-10-05T23:57:06.816Z,70.70
2018-10-05T23:59:35.362Z,71.00
